createdAt,value
2022-11-16T00:02:06.627Z,8.51
2022-11-16T00:04:33.099Z,8.94
2022-11-16T00:06:59.666Z,7.86
2022-11-16T00:09:28.709Z,7.97
2022-11-16T00:12:00.265Z,8.90
2022-11-16T00:14:30.785Z,8.96
2022-11-16T00:16:58.050Z,8.99
2022-11-16T00:19:25.789Z,9.02
2022-11-16T00:21:52.642Z,9.01
2022-11-16T00:24:21.057Z,7.58
2022-11-16T00:26:48.461Z,8.54
2022-11-16T00:29:26.312Z,8.86
2022-11-16T00:31:53.836Z,8.87
2022-11-16T00:34:21.354Z,9.00
2022-11-16T00:36:48.014Z,8.98
2022-11-16T00:39:16.353Z,9.03
2022-11-16T00:41:44.036Z,8.99
2022-11-16T00:44:11.757Z,8.31
2022-11-16T00:46:38.281Z,7.31
2022-11-16T00:49:05.639Z,8.11
2022-11-16T00:51:33.090Z,8.77
2022-11-16T00:53:59.638Z,7.94
2022-11-16T00:56:26.029Z,7.50
2022-11-16T00:58:52.465Z,8.60
2022-11-16T01:01:18.945Z,8.84
2022-11-16T01:03:45.967Z,8.85
2022-11-16T01:06:14.316Z,8.13
2022-11-16T01:08:42.250Z,8.78
2022-11-16T01:11:28.502Z,8.33
2022-11-16T01:13:55.329Z,7.97
2022-11-16T01:16:23.323Z,8.71
2022-11-16T01:18:52.053Z,8.88
2022-11-16T01:21:19.764Z,8.93
2022-11-16T01:23:46.465Z,8.72
2022-11-16T01:26:12.888Z,8.47
2022-11-16T01:28:39.335Z,8.41
2022-11-16T01:31:05.947Z,8.82
2022-11-16T01:33:32.358Z,8.93
2022-11-16T01:35:58.814Z,8.93
2022-11-16T01:38:29.505Z,8.97
2022-11-16T01:40:56.720Z,8.44
2022-11-16T01:43:25.094Z,7.80
2022-11-16T01:45:51.792Z,8.30
2022-11-16T01:48:23.209Z,8.80
2022-11-16T01:50:50.044Z,8.80
2022-11-16T01:53:16.852Z,8.91
2022-11-16T01:55:46.123Z,8.95
2022-11-16T01:58:18.737Z,8.98
2022-11-16T02:00:45.371Z,8.89
2022-11-16T02:03:11.817Z,8.81
2022-11-16T02:06:15.484Z,8.34
2022-11-16T02:09:22.496Z,8.84
2022-11-16T02:12:03.926Z,8.96
2022-11-16T02:14:46.660Z,8.99
2022-11-16T02:17:45.221Z,8.92
2022-11-16T02:20:42.346Z,9.04
2022-11-16T02:23:36.778Z,9.01
2022-11-16T02:26:33.196Z,9.00
2022-11-16T02:29:31.636Z,8.94
2022-11-16T02:32:19.232Z,8.12
2022-11-16T02:35:07.370Z,8.63
2022-11-16T02:37:37.742Z,8.84
2022-11-16T02:40:09.253Z,8.81
2022-11-16T02:43:09.532Z,8.98
2022-11-16T02:45:46.413Z,9.00
2022-11-16T02:48:22.568Z,9.03
2022-11-16T02:50:52.795Z,8.93
2022-11-16T02:53:24.251Z,8.06
2022-11-16T02:55:51.101Z,8.76
2022-11-16T02:58:21.320Z,8.97
2022-11-16T03:01:07.982Z,8.12
2022-11-16T03:03:52.654Z,8.87
2022-11-16T03:06:28.895Z,8.97
2022-11-16T03:09:05.050Z,9.01
2022-11-16T03:11:57.624Z,8.94
2022-11-16T03:14:33.093Z,9.00
2022-11-16T03:17:01.977Z,9.00
2022-11-16T03:19:41.618Z,8.97
2022-11-16T03:22:12.619Z,8.94
2022-11-16T03:24:39.744Z,9.00
2022-11-16T03:27:29.299Z,9.00
2022-11-16T03:30:05.125Z,8.86
2022-11-16T03:32:43.826Z,9.01
2022-11-16T03:35:35.082Z,9.03
2022-11-16T03:38:04.097Z,9.01
2022-11-16T03:40:34.297Z,8.97
2022-11-16T03:43:03.071Z,9.06
2022-11-16T03:45:30.902Z,9.06
2022-11-16T03:47:57.368Z,9.02
2022-11-16T03:50:23.939Z,9.06
2022-11-16T03:52:50.410Z,8.98
2022-11-16T03:55:16.915Z,9.09
2022-11-16T03:57:43.414Z,9.02
2022-11-16T04:00:10.545Z,9.06
2022-11-16T04:02:36.947Z,8.15
2022-11-16T04:05:22.006Z,8.75
2022-11-16T04:08:07.301Z,8.98
2022-11-16T04:10:52.654Z,8.93
2022-11-16T04:13:46.713Z,9.02
2022-11-16T04:16:31.378Z,9.03
2022-11-16T04:19:16.257Z,9.06
2022-11-16T04:22:06.761Z,8.88
2022-11-16T04:24:37.976Z,9.02
2022-11-16T04:27:46.985Z,7.77
2022-11-16T04:30:13.652Z,8.61
2022-11-16T04:33:18.876Z,8.93
2022-11-16T04:36:03.881Z,8.94
2022-11-16T04:38:30.410Z,9.03
2022-11-16T04:40:56.911Z,8.79
2022-11-16T04:43:23.328Z,8.94
2022-11-16T04:46:08.189Z,9.04
2022-11-16T04:48:34.883Z,9.03
2022-11-16T04:51:01.590Z,9.06
2022-11-16T04:53:27.992Z,9.07
2022-11-16T04:55:56.694Z,8.71
2022-11-16T04:58:26.961Z,8.92
2022-11-16T05:00:53.464Z,9.02
2022-11-16T05:03:19.850Z,8.72
2022-11-16T05:05:46.350Z,8.54
2022-11-16T05:08:12.727Z,8.12
2022-11-16T05:10:39.122Z,8.75
2022-11-16T05:13:05.569Z,8.98
2022-11-16T05:15:31.982Z,8.97
2022-11-16T05:17:58.504Z,8.95
2022-11-16T05:20:43.611Z,9.04
2022-11-16T05:23:29.972Z,9.01
2022-11-16T05:25:56.358Z,9.05
2022-11-16T05:28:22.810Z,9.07
2022-11-16T05:30:49.226Z,9.09
2022-11-16T05:33:17.773Z,9.04
2022-11-16T05:35:44.262Z,9.07
2022-11-16T05:38:10.696Z,9.07
2022-11-16T05:40:37.116Z,8.67
2022-11-16T05:43:03.510Z,8.92
2022-11-16T05:45:29.902Z,8.97
2022-11-16T05:47:56.422Z,8.98
2022-11-16T05:50:22.885Z,9.09
2022-11-16T05:52:49.308Z,9.11
2022-11-16T05:55:15.876Z,9.10
2022-11-16T05:57:42.383Z,9.07
2022-11-16T06:00:09.490Z,9.07
2022-11-16T06:02:36.478Z,9.10
2022-11-16T06:05:03.253Z,9.14
2022-11-16T06:07:29.828Z,9.10
2022-11-16T06:09:56.278Z,9.09
2022-11-16T06:12:22.652Z,9.10
2022-11-16T06:14:49.167Z,9.08
2022-11-16T06:17:15.579Z,9.11
2022-11-16T06:19:42.074Z,9.08
2022-11-16T06:22:08.548Z,9.09
2022-11-16T06:24:34.932Z,9.02
2022-11-16T06:27:01.350Z,8.49
2022-11-16T06:29:27.779Z,8.84
2022-11-16T06:31:54.168Z,9.03
2022-11-16T06:34:20.607Z,9.09
2022-11-16T06:36:47.178Z,9.09
2022-11-16T06:39:13.711Z,9.01
2022-11-16T06:41:41.598Z,9.11
2022-11-16T06:44:08.366Z,9.06
2022-11-16T06:46:34.749Z,9.08
2022-11-16T06:49:01.225Z,9.07
2022-11-16T06:51:27.601Z,9.13
2022-11-16T06:53:54.027Z,9.11
2022-11-16T06:56:20.583Z,9.14
2022-11-16T06:58:46.984Z,9.14
2022-11-16T07:01:13.587Z,9.10
2022-11-16T07:03:40.139Z,9.16
2022-11-16T07:06:12.004Z,9.09
2022-11-16T07:08:39.221Z,9.12
2022-11-16T07:11:07.430Z,8.98
2022-11-16T07:13:35.586Z,9.09
2022-11-16T07:16:09.874Z,9.12
2022-11-16T07:18:41.432Z,9.15
2022-11-16T07:21:09.973Z,9.08
2022-11-16T07:23:36.957Z,9.13
2022-11-16T07:26:04.999Z,9.07
2022-11-16T07:28:32.510Z,8.70
2022-11-16T07:31:03.555Z,9.00
2022-11-16T07:33:30.388Z,9.09
2022-11-16T07:36:05.035Z,9.12
2022-11-16T07:38:32.798Z,9.12
2022-11-16T07:41:07.699Z,9.14
2022-11-16T07:43:37.032Z,9.08
2022-11-16T07:46:44.821Z,9.15
2022-11-16T07:48:54.446Z,9.19
2022-11-16T07:51:20.827Z,8.89
2022-11-16T07:53:47.373Z,9.07
2022-11-16T07:56:13.913Z,9.11
2022-11-16T07:58:40.635Z,9.18
2022-11-16T08:01:09.532Z,9.12
2022-11-16T08:03:36.215Z,9.15
2022-11-16T08:06:05.062Z,9.12
2022-11-16T08:08:32.209Z,8.66
2022-11-16T08:11:05.650Z,8.85
2022-11-16T08:13:34.312Z,9.09
2022-11-16T08:16:05.595Z,9.11
2022-11-16T08:18:32.289Z,9.13
2022-11-16T08:21:00.096Z,9.09
2022-11-16T08:23:26.512Z,8.99
2022-11-16T08:25:52.931Z,8.84
2022-11-16T08:28:19.326Z,9.08
2022-11-16T08:30:51.006Z,9.16
2022-11-16T08:33:21.439Z,9.14
2022-11-16T08:35:48.373Z,9.15
2022-11-16T08:38:15.221Z,9.26
2022-11-16T08:40:41.951Z,9.18
2022-11-16T08:43:08.326Z,9.02
2022-11-16T08:45:34.726Z,9.02
2022-11-16T08:48:03.981Z,9.14
2022-11-16T08:50:36.289Z,9.14
2022-11-16T08:53:10.978Z,9.12
2022-11-16T08:55:37.437Z,9.24
2022-11-16T08:58:03.863Z,9.19
2022-11-16T09:00:30.291Z,9.17
2022-11-16T09:02:56.728Z,9.21
2022-11-16T09:05:23.137Z,9.19
2022-11-16T09:07:49.568Z,9.18
2022-11-16T09:10:18.897Z,9.24
2022-11-16T09:12:45.347Z,9.21
2022-11-16T09:15:11.792Z,9.40
2022-11-16T09:17:38.279Z,8.91
2022-11-16T09:20:05.205Z,9.35
2022-11-16T09:22:31.628Z,9.22
2022-11-16T09:24:58.040Z,9.44
2022-11-16T09:27:24.433Z,9.35
2022-11-16T09:29:50.896Z,9.36
2022-11-16T09:32:17.354Z,9.14
2022-11-16T09:34:43.766Z,9.09
2022-11-16T09:37:10.278Z,8.93
2022-11-16T09:39:36.778Z,9.05
2022-11-16T09:42:26.854Z,9.28
2022-11-16T09:45:00.421Z,9.33
2022-11-16T09:47:43.196Z,9.15
2022-11-16T09:50:22.376Z,9.29
2022-11-16T09:52:51.456Z,9.42
2022-11-16T09:55:46.844Z,9.36
2022-11-16T09:58:25.174Z,9.23
2022-11-16T10:00:59.256Z,9.27
2022-11-16T10:03:28.785Z,9.21
2022-11-16T10:06:05.345Z,9.44
2022-11-16T10:08:41.094Z,9.37
2022-11-16T10:11:28.731Z,9.67
2022-11-16T10:13:56.297Z,9.32
2022-11-16T10:17:01.001Z,9.56
2022-11-16T10:19:33.890Z,9.37
2022-11-16T10:22:20.805Z,9.64
2022-11-16T10:25:18.689Z,9.33
2022-11-16T10:27:54.118Z,9.37
2022-11-16T10:30:22.057Z,9.36
2022-11-16T10:33:10.894Z,9.66
2022-11-16T10:35:42.780Z,9.45
2022-11-16T10:38:17.698Z,9.36
2022-11-16T10:40:49.800Z,9.36
2022-11-16T10:43:25.524Z,9.43
2022-11-16T10:45:58.032Z,9.39
2022-11-16T10:48:39.601Z,9.32
2022-11-16T10:51:08.671Z,9.61
2022-11-16T10:53:40.578Z,9.36
2022-11-16T10:56:24.864Z,9.55
2022-11-16T10:58:54.128Z,9.41
2022-11-16T11:01:50.636Z,9.64
2022-11-16T11:04:31.544Z,9.58
2022-11-16T11:07:21.195Z,9.67
2022-11-16T11:09:54.194Z,9.49
2022-11-16T11:12:49.546Z,9.43
2022-11-16T11:15:27.043Z,9.53
2022-11-16T11:18:15.403Z,9.82
2022-11-16T11:20:45.481Z,9.47
2022-11-16T11:23:18.814Z,9.68
2022-11-16T11:25:49.976Z,9.41
2022-11-16T11:28:19.652Z,9.71
2022-11-16T11:30:57.633Z,9.76
2022-11-16T11:33:27.024Z,9.67
2022-11-16T11:36:38.470Z,9.48
2022-11-16T11:39:12.521Z,9.41
2022-11-16T11:41:42.708Z,9.49
2022-11-16T11:44:20.258Z,9.53
2022-11-16T11:49:49.873Z,9.74
2022-11-16T11:52:34.175Z,9.43
2022-11-16T11:55:02.816Z,9.64
2022-11-16T11:57:29.478Z,9.64
2022-11-16T11:59:56.000Z,9.82
2022-11-16T12:02:37.480Z,9.56
2022-11-16T12:05:20.829Z,9.47
2022-11-16T12:08:03.663Z,9.61
2022-11-16T12:10:52.133Z,9.75
2022-11-16T12:13:43.473Z,9.97
2022-11-16T12:16:22.263Z,9.81
2022-11-16T12:19:21.249Z,9.79
2022-11-16T12:22:06.133Z,9.60
2022-11-16T12:25:24.996Z,9.57
2022-11-16T12:27:57.553Z,9.61
2022-11-16T12:30:24.761Z,10.16
2022-11-16T12:32:59.731Z,10.04
2022-11-16T12:35:52.012Z,10.42
2022-11-16T12:38:50.301Z,10.52
2022-11-16T12:41:37.506Z,10.14
2022-11-16T12:44:13.751Z,10.26
2022-11-16T12:46:59.004Z,9.70
2022-11-16T12:49:35.928Z,9.69
2022-11-16T12:52:02.301Z,9.68
2022-11-16T12:54:31.749Z,9.60
2022-11-16T12:57:12.453Z,9.67
2022-11-16T13:00:12.542Z,10.09
2022-11-16T13:03:18.700Z,10.08
2022-11-16T13:05:59.268Z,9.85
2022-11-16T13:09:01.606Z,10.04
2022-11-16T13:11:33.838Z,10.25
2022-11-16T13:14:05.190Z,10.06
2022-11-16T13:16:31.936Z,9.80
2022-11-16T13:18:59.993Z,9.75
2022-11-16T13:21:45.665Z,9.96
2022-11-16T13:24:26.235Z,9.98
2022-11-16T13:27:24.150Z,9.80
2022-11-16T13:30:28.531Z,9.76
2022-11-16T13:33:30.067Z,9.95
2022-11-16T13:35:56.529Z,9.80
2022-11-16T13:38:51.145Z,9.91
2022-11-16T13:41:33.582Z,9.76
2022-11-16T13:44:01.073Z,9.71
2022-11-16T13:46:55.391Z,9.77
2022-11-16T13:49:29.378Z,9.76
2022-11-16T13:52:16.865Z,9.93
2022-11-16T13:54:50.790Z,9.79
2022-11-16T13:57:26.481Z,9.71
2022-11-16T14:00:11.864Z,9.78
2022-11-16T14:02:40.882Z,9.79
2022-11-16T14:05:13.192Z,9.79
2022-11-16T14:07:47.330Z,9.79
2022-11-16T14:10:33.865Z,9.79
2022-11-16T14:13:02.062Z,9.79
2022-11-16T14:15:37.642Z,9.81
2022-11-16T14:18:10.065Z,9.82
2022-11-16T14:20:43.647Z,9.80
2022-11-16T14:23:21.010Z,9.81
2022-11-16T14:26:06.548Z,9.82
2022-11-16T14:28:50.369Z,9.82
2022-11-16T14:31:30.385Z,9.81
2022-11-16T14:33:59.831Z,9.82
2022-11-16T14:36:44.450Z,9.85
2022-11-16T14:39:16.762Z,9.85
2022-11-16T14:41:47.167Z,9.85
2022-11-16T14:44:18.663Z,9.84
2022-11-16T14:46:45.838Z,9.85
2022-11-16T14:49:16.393Z,9.85
2022-11-16T14:51:47.463Z,9.88
2022-11-16T14:54:28.686Z,9.85
2022-11-16T14:57:17.729Z,9.85
2022-11-16T14:59:44.194Z,9.79
2022-11-16T15:02:23.040Z,9.87
2022-11-16T15:04:52.557Z,9.78
2022-11-16T15:07:22.842Z,9.81
2022-11-16T15:09:59.102Z,9.90
2022-11-16T15:12:42.514Z,9.88
2022-11-16T15:15:12.003Z,9.87
2022-11-16T15:17:51.422Z,9.87
2022-11-16T15:20:21.771Z,9.88
2022-11-16T15:22:53.255Z,9.84
2022-11-16T15:25:42.136Z,9.87
2022-11-16T15:28:22.551Z,9.88
2022-11-16T15:30:51.787Z,9.87
2022-11-16T15:33:23.944Z,9.88
2022-11-16T15:35:50.550Z,9.87
2022-11-16T15:38:26.501Z,9.88
2022-11-16T15:40:54.991Z,9.80
2022-11-16T15:43:25.797Z,9.85
2022-11-16T15:45:52.930Z,9.85
2022-11-16T15:48:22.421Z,9.91
2022-11-16T15:51:02.981Z,9.82
2022-11-16T15:53:38.950Z,9.82
2022-11-16T15:56:32.793Z,9.82
2022-11-16T15:59:09.376Z,9.82
2022-11-16T16:01:42.663Z,9.84
2022-11-16T16:04:15.970Z,9.76
2022-11-16T16:06:45.485Z,9.81
2022-11-16T16:09:27.579Z,9.76
2022-11-16T16:12:13.848Z,9.83
2022-11-16T16:14:40.389Z,9.83
2022-11-16T16:17:09.057Z,9.87
2022-11-16T16:19:44.494Z,9.78
2022-11-16T16:22:25.894Z,9.78
2022-11-16T16:24:52.717Z,9.77
2022-11-16T16:27:21.942Z,9.82
2022-11-16T16:29:50.766Z,9.78
2022-11-16T16:32:30.681Z,9.80
2022-11-16T16:34:59.218Z,9.79
2022-11-16T16:37:27.272Z,9.70
2022-11-16T16:39:53.720Z,9.78
2022-11-16T16:42:20.380Z,9.78
2022-11-16T16:44:47.593Z,9.80
2022-11-16T16:47:14.983Z,9.68
2022-11-16T16:49:41.857Z,9.79
2022-11-16T16:52:11.852Z,9.77
2022-11-16T16:54:38.494Z,8.22
2022-11-16T16:57:04.949Z,9.16
2022-11-16T16:59:31.733Z,9.60
2022-11-16T17:01:59.260Z,9.67
2022-11-16T17:04:26.100Z,9.74
2022-11-16T17:06:53.222Z,9.74
2022-11-16T17:09:20.115Z,9.71
2022-11-16T17:11:48.065Z,9.70
2022-11-16T17:14:14.617Z,9.62
2022-11-16T17:16:41.103Z,9.72
2022-11-16T17:19:07.484Z,9.73
2022-11-16T17:21:35.777Z,9.63
2022-11-16T17:24:03.212Z,9.69
2022-11-16T17:26:29.717Z,9.71
2022-11-16T17:28:57.445Z,9.68
2022-11-16T17:31:25.061Z,9.69
2022-11-16T17:33:51.538Z,9.63
2022-11-16T17:36:18.371Z,9.58
2022-11-16T17:38:45.315Z,9.65
2022-11-16T17:41:14.517Z,9.71
2022-11-16T17:43:42.643Z,9.66
2022-11-16T17:46:11.341Z,9.60
2022-11-16T17:48:39.390Z,9.66
2022-11-16T17:51:06.285Z,9.58
2022-11-16T17:53:35.118Z,9.62
2022-11-16T17:56:02.913Z,9.61
2022-11-16T17:58:30.364Z,9.65
2022-11-16T18:00:57.436Z,9.51
2022-11-16T18:03:28.392Z,9.60
2022-11-16T18:06:11.203Z,9.55
2022-11-16T18:08:37.946Z,9.58
2022-11-16T18:11:16.387Z,9.56
2022-11-16T18:13:43.685Z,9.54
2022-11-16T18:16:15.485Z,9.61
2022-11-16T18:18:42.942Z,9.30
2022-11-16T18:21:13.548Z,9.54
2022-11-16T18:23:42.695Z,9.53
2022-11-16T18:26:11.776Z,9.55
2022-11-16T18:28:38.256Z,9.52
2022-11-16T18:31:11.002Z,9.50
2022-11-16T18:33:38.599Z,9.49
2022-11-16T18:36:06.872Z,9.47
2022-11-16T18:38:33.573Z,9.23
2022-11-16T18:41:12.191Z,9.43
2022-11-16T18:43:42.506Z,9.10
2022-11-16T18:46:08.919Z,7.97
2022-11-16T18:48:35.358Z,9.10
2022-11-16T18:51:03.718Z,9.28
2022-11-16T18:53:31.246Z,9.32
2022-11-16T18:55:58.451Z,9.36
2022-11-16T18:58:49.395Z,9.37
2022-11-16T19:01:14.752Z,9.39
2022-11-16T19:03:41.513Z,8.88
2022-11-16T19:06:09.431Z,9.24
2022-11-16T19:08:37.998Z,9.26
2022-11-16T19:11:12.980Z,9.27
2022-11-16T19:13:40.982Z,9.35
2022-11-16T19:16:09.305Z,9.31
2022-11-16T19:18:36.458Z,9.21
2022-11-16T19:21:14.393Z,9.31
2022-11-16T19:23:43.392Z,9.30
2022-11-16T19:26:12.234Z,9.16
2022-11-16T19:28:40.638Z,9.21
2022-11-16T19:31:12.377Z,9.23
2022-11-16T19:33:39.199Z,9.22
2022-11-16T19:36:14.048Z,9.23
2022-11-16T19:38:41.261Z,9.17
2022-11-16T19:41:09.878Z,9.23
2022-11-16T19:43:36.657Z,9.16
2022-11-16T19:46:05.622Z,9.18
2022-11-16T19:48:32.811Z,9.18
2022-11-16T19:51:29.677Z,9.19
2022-11-16T19:53:56.493Z,5.49
2022-11-16T19:56:24.041Z,8.38
2022-11-16T19:58:51.061Z,8.89
2022-11-16T20:01:20.745Z,8.99
2022-11-16T20:03:47.904Z,8.99
2022-11-16T20:06:17.349Z,6.60
2022-11-16T20:08:48.222Z,8.20
2022-11-16T20:11:22.902Z,8.82
2022-11-16T20:13:51.493Z,8.94
2022-11-16T20:16:20.171Z,6.44
2022-11-16T20:18:47.523Z,8.53
2022-11-16T20:21:24.135Z,8.81
2022-11-16T20:23:54.196Z,8.92
2022-11-16T20:26:21.473Z,6.92
2022-11-16T20:28:51.047Z,8.37
2022-11-16T20:31:19.657Z,8.77
2022-11-16T20:33:51.476Z,8.76
2022-11-16T20:36:18.871Z,8.80
2022-11-16T20:38:45.631Z,8.87
2022-11-16T20:41:19.454Z,8.86
2022-11-16T20:43:47.595Z,8.87
2022-11-16T20:46:16.194Z,8.85
2022-11-16T20:48:43.760Z,8.80
2022-11-16T20:51:12.715Z,7.70
2022-11-16T20:53:39.609Z,8.62
2022-11-16T20:56:07.658Z,8.75
2022-11-16T20:58:34.918Z,8.78
2022-11-16T21:01:02.783Z,8.85
2022-11-16T21:03:29.574Z,8.77
2022-11-16T21:05:55.985Z,8.84
2022-11-16T21:08:23.547Z,8.38
2022-11-16T21:10:50.000Z,7.52
2022-11-16T21:13:37.227Z,8.45
2022-11-16T21:16:11.384Z,8.44
2022-11-16T21:18:39.399Z,8.31
2022-11-16T21:21:07.874Z,8.64
2022-11-16T21:23:35.800Z,8.64
2022-11-16T21:26:13.239Z,8.70
2022-11-16T21:28:39.875Z,7.29
2022-11-16T21:31:09.709Z,8.30
2022-11-16T21:33:36.564Z,8.51
2022-11-16T21:36:09.958Z,8.55
2022-11-16T21:38:38.541Z,8.55
2022-11-16T21:41:06.365Z,8.56
2022-11-16T21:43:37.100Z,8.57
2022-11-16T21:46:07.105Z,8.57
2022-11-16T21:48:34.738Z,8.52
2022-11-16T21:51:07.179Z,8.51
2022-11-16T21:53:34.343Z,7.45
2022-11-16T21:56:01.393Z,6.41
2022-11-16T21:58:28.299Z,7.64
2022-11-16T22:01:00.619Z,6.94
2022-11-16T22:03:31.974Z,8.25
2022-11-16T22:06:18.712Z,6.96
2022-11-16T22:08:46.031Z,8.19
2022-11-16T22:11:13.710Z,8.40
2022-11-16T22:13:40.609Z,6.67
2022-11-16T22:16:08.946Z,8.13
2022-11-16T22:18:35.722Z,8.34
2022-11-16T22:21:03.104Z,8.32
2022-11-16T22:23:30.024Z,8.35
2022-11-16T22:26:02.656Z,8.34
2022-11-16T22:28:29.154Z,8.32
2022-11-16T22:31:10.942Z,8.40
2022-11-16T22:33:38.131Z,8.32
2022-11-16T22:36:05.473Z,6.25
2022-11-16T22:38:31.954Z,7.91
2022-11-16T22:40:58.511Z,6.13
2022-11-16T22:43:29.923Z,7.83
2022-11-16T22:46:01.104Z,7.40
2022-11-16T22:48:38.677Z,6.76
2022-11-16T22:51:25.446Z,7.80
2022-11-16T22:54:00.573Z,8.00
2022-11-16T22:56:28.978Z,8.01
2022-11-16T22:58:56.034Z,6.51
2022-11-16T23:01:22.545Z,7.03
2022-11-16T23:03:49.223Z,7.90
2022-11-16T23:06:16.521Z,8.02
2022-11-16T23:08:43.095Z,8.06
2022-11-16T23:11:33.833Z,5.50
2022-11-16T23:14:19.691Z,7.08
2022-11-16T23:16:46.873Z,6.79
2022-11-16T23:19:34.526Z,7.82
2022-11-16T23:22:19.883Z,7.93
2022-11-16T23:25:05.240Z,7.98
2022-11-16T23:27:40.306Z,7.99
2022-11-16T23:30:12.060Z,7.64
2022-11-16T23:32:39.433Z,7.34
2022-11-16T23:35:06.194Z,6.91
2022-11-16T23:37:32.632Z,5.19
2022-11-16T23:39:59.226Z,5.47
2022-11-16T23:42:44.684Z,3.47
2022-11-16T23:45:11.147Z,6.99
2022-11-16T23:47:37.528Z,6.53
2022-11-16T23:50:04.337Z,4.07
2022-11-16T23:52:30.737Z,7.06
2022-11-16T23:54:57.258Z,5.99
2022-11-16T23:57:23.635Z,3.94
2022-11-16T23:59:50.017Z,6.50
